createdAt,value
2023-02-15T00:01:56.014Z,2.85
2023-02-15T00:04:24.465Z,3.33
2023-02-15T00:06:51.287Z,3.08
2023-02-15T00:09:18.014Z,3.42
2023-02-15T00:11:50.806Z,3.90
2023-02-15T00:14:22.517Z,3.20
2023-02-15T00:16:49.850Z,3.58
2023-02-15T00:19:17.936Z,3.60
2023-02-15T00:21:44.858Z,3.40
2023-02-15T00:24:12.610Z,4.05
2023-02-15T00:26:40.467Z,3.60
2023-02-15T00:29:07.387Z,3.13
2023-02-15T00:31:34.339Z,3.40
2023-02-15T00:34:08.368Z,3.55
2023-02-15T00:36:35.101Z,3.53
2023-02-15T00:39:01.847Z,3.72
2023-02-15T00:41:28.575Z,3.05
2023-02-15T00:43:55.275Z,3.40
2023-02-15T00:46:22.101Z,3.50
2023-02-15T00:48:48.861Z,3.63
2023-02-15T00:51:15.665Z,3.55
2023-02-15T00:53:42.377Z,3.45
2023-02-15T00:56:09.118Z,3.50
2023-02-15T00:58:35.844Z,3.50
2023-02-15T01:01:10.368Z,3.70
2023-02-15T01:03:37.213Z,2.97
2023-02-15T01:06:04.110Z,3.40
2023-02-15T01:08:31.023Z,3.53
2023-02-15T01:10:57.828Z,3.85
2023-02-15T01:13:24.538Z,3.45
2023-02-15T01:15:55.707Z,3.22
2023-02-15T01:18:23.002Z,3.55
2023-02-15T01:20:49.907Z,3.60
2023-02-15T01:23:16.784Z,3.45
2023-02-15T01:25:43.648Z,3.40
2023-02-15T01:28:10.430Z,4.13
2023-02-15T01:30:37.196Z,3.78
2023-02-15T01:33:04.051Z,3.55
2023-02-15T01:35:31.203Z,3.50
2023-02-15T01:37:58.061Z,4.22
2023-02-15T01:40:24.974Z,4.82
2023-02-15T01:42:52.951Z,3.60
2023-02-15T01:45:23.172Z,3.72
2023-02-15T01:47:51.754Z,3.90
2023-02-15T01:50:41.553Z,3.83
2023-02-15T01:53:18.428Z,4.28
2023-02-15T01:56:12.368Z,3.60
2023-02-15T01:58:39.136Z,4.35
2023-02-15T02:01:06.146Z,4.55
2023-02-15T02:03:48.257Z,4.18
2023-02-15T02:06:15.109Z,4.13
2023-02-15T02:08:42.453Z,4.20
2023-02-15T02:11:13.069Z,3.80
2023-02-15T02:13:43.221Z,3.88
2023-02-15T02:16:33.161Z,3.05
2023-02-15T02:19:13.921Z,3.40
2023-02-15T02:21:49.550Z,4.15
2023-02-15T02:24:33.561Z,4.03
2023-02-15T02:27:20.435Z,4.10
2023-02-15T02:30:17.928Z,3.17
2023-02-15T02:33:12.661Z,3.95
2023-02-15T02:35:45.814Z,3.67
2023-02-15T02:38:28.152Z,4.18
2023-02-15T02:41:16.960Z,3.72
2023-02-15T02:43:54.615Z,3.83
2023-02-15T02:46:24.951Z,3.45
2023-02-15T02:48:51.685Z,3.30
2023-02-15T02:51:22.439Z,3.53
2023-02-15T02:53:57.752Z,3.30
2023-02-15T02:56:38.874Z,3.90
2023-02-15T02:59:13.681Z,3.85
2023-02-15T03:01:45.621Z,3.13
2023-02-15T03:04:20.275Z,3.08
2023-02-15T03:06:50.076Z,3.85
2023-02-15T03:09:42.675Z,3.20
2023-02-15T03:12:20.904Z,3.60
2023-02-15T03:15:12.016Z,3.40
2023-02-15T03:17:46.548Z,3.30
2023-02-15T03:20:19.694Z,3.60
2023-02-15T03:22:51.766Z,3.88
2023-02-15T03:25:26.575Z,3.30
2023-02-15T03:27:59.949Z,3.40
2023-02-15T03:30:26.802Z,3.97
2023-02-15T03:32:53.678Z,4.20
2023-02-15T03:35:22.477Z,3.67
2023-02-15T03:37:52.122Z,3.45
2023-02-15T03:40:50.608Z,3.42
2023-02-15T03:43:21.779Z,3.55
2023-02-15T03:45:55.938Z,3.47
2023-02-15T03:48:40.760Z,3.40
2023-02-15T03:51:28.773Z,3.63
2023-02-15T03:53:55.597Z,3.53
2023-02-15T03:56:22.375Z,3.60
2023-02-15T03:59:07.635Z,3.33
2023-02-15T04:01:58.463Z,3.47
2023-02-15T04:04:49.011Z,4.10
2023-02-15T04:07:15.790Z,3.95
2023-02-15T04:10:01.211Z,3.50
2023-02-15T04:12:27.981Z,3.30
2023-02-15T04:15:13.161Z,3.70
2023-02-15T04:17:40.359Z,3.50
2023-02-15T04:20:26.436Z,3.42
2023-02-15T04:23:11.963Z,3.30
2023-02-15T04:25:38.763Z,3.80
2023-02-15T04:28:05.470Z,3.20
2023-02-15T04:30:32.186Z,2.95
2023-02-15T04:32:58.972Z,3.97
2023-02-15T04:35:26.671Z,3.35
2023-02-15T04:37:53.475Z,3.88
2023-02-15T04:40:20.375Z,3.72
2023-02-15T04:42:50.319Z,3.50
2023-02-15T04:45:17.923Z,3.53
2023-02-15T04:47:45.171Z,3.75
2023-02-15T04:50:12.112Z,3.85
2023-02-15T04:52:39.155Z,3.60
2023-02-15T04:55:06.317Z,3.67
2023-02-15T04:57:33.059Z,2.97
2023-02-15T05:00:00.220Z,3.70
2023-02-15T05:02:27.102Z,3.50
2023-02-15T05:04:53.853Z,3.80
2023-02-15T05:07:21.437Z,3.22
2023-02-15T05:09:48.516Z,3.28
2023-02-15T05:12:15.272Z,3.28
2023-02-15T05:14:42.051Z,3.65
2023-02-15T05:17:08.836Z,3.85
2023-02-15T05:19:35.600Z,4.40
2023-02-15T05:22:02.392Z,3.60
2023-02-15T05:24:47.619Z,4.00
2023-02-15T05:27:32.857Z,4.68
2023-02-15T05:29:59.747Z,3.83
2023-02-15T05:32:26.739Z,4.22
2023-02-15T05:34:53.523Z,3.83
2023-02-15T05:37:20.277Z,4.35
2023-02-15T05:39:47.050Z,4.05
2023-02-15T05:42:13.747Z,4.50
2023-02-15T05:44:40.490Z,4.65
2023-02-15T05:47:08.478Z,3.70
2023-02-15T05:49:35.284Z,3.80
2023-02-15T05:52:02.478Z,4.20
2023-02-15T05:54:29.591Z,4.70
2023-02-15T05:56:56.289Z,4.18
2023-02-15T05:59:23.125Z,4.43
2023-02-15T06:01:49.825Z,4.38
2023-02-15T06:04:16.592Z,4.28
2023-02-15T06:06:43.349Z,3.95
2023-02-15T06:09:12.132Z,3.75
2023-02-15T06:11:38.866Z,3.45
2023-02-15T06:14:05.681Z,3.95
2023-02-15T06:16:32.501Z,3.90
2023-02-15T06:19:00.360Z,3.25
2023-02-15T06:21:27.095Z,4.18
2023-02-15T06:23:53.856Z,3.97
2023-02-15T06:26:20.673Z,3.50
2023-02-15T06:28:47.476Z,4.20
2023-02-15T06:31:14.303Z,3.28
2023-02-15T06:33:41.083Z,3.88
2023-02-15T06:36:08.488Z,4.90
2023-02-15T06:38:35.244Z,4.20
2023-02-15T06:41:01.981Z,4.65
2023-02-15T06:43:28.712Z,4.03
2023-02-15T06:45:55.529Z,3.30
2023-02-15T06:48:22.240Z,4.00
2023-02-15T06:50:50.242Z,2.92
2023-02-15T06:53:17.053Z,3.58
2023-02-15T06:55:43.764Z,3.47
2023-02-15T06:58:10.520Z,4.40
2023-02-15T07:00:37.334Z,3.80
2023-02-15T07:03:04.198Z,3.30
2023-02-15T07:05:33.413Z,4.20
2023-02-15T07:08:00.283Z,3.88
2023-02-15T07:10:27.693Z,4.00
2023-02-15T07:12:54.771Z,4.20
2023-02-15T07:15:22.507Z,4.45
2023-02-15T07:17:50.079Z,3.78
2023-02-15T07:20:23.770Z,4.05
2023-02-15T07:22:50.730Z,4.40
2023-02-15T07:25:17.853Z,3.90
2023-02-15T07:27:45.911Z,4.22
2023-02-15T07:30:14.536Z,3.85
2023-02-15T07:33:04.208Z,4.45
2023-02-15T07:35:31.740Z,3.40
2023-02-15T07:37:58.506Z,4.53
2023-02-15T07:40:25.380Z,3.97
2023-02-15T07:42:54.180Z,3.72
2023-02-15T07:45:21.241Z,3.60
2023-02-15T07:47:48.372Z,4.03
2023-02-15T07:50:15.360Z,3.30
2023-02-15T07:52:42.156Z,3.92
2023-02-15T07:55:09.909Z,3.60
2023-02-15T07:57:36.756Z,3.60
2023-02-15T08:00:04.621Z,4.18
2023-02-15T08:02:31.418Z,4.13
2023-02-15T08:04:58.264Z,4.25
2023-02-15T08:07:25.068Z,4.40
2023-02-15T08:09:52.131Z,3.80
2023-02-15T08:12:18.956Z,4.03
2023-02-15T08:14:45.773Z,3.67
2023-02-15T08:17:12.732Z,3.67
2023-02-15T08:19:39.480Z,3.58
2023-02-15T08:22:07.290Z,3.13
2023-02-15T08:24:35.823Z,3.25
2023-02-15T08:27:06.457Z,3.30
2023-02-15T08:29:33.677Z,4.00
2023-02-15T08:32:03.580Z,4.63
2023-02-15T08:34:31.794Z,5.30
2023-02-15T08:36:58.654Z,5.43
2023-02-15T08:39:25.454Z,5.18
2023-02-15T08:41:52.267Z,5.03
2023-02-15T08:44:19.620Z,4.85
2023-02-15T08:46:47.295Z,4.55
2023-02-15T08:49:17.036Z,5.30
2023-02-15T08:51:43.837Z,4.32
2023-02-15T08:54:13.324Z,3.80
2023-02-15T08:56:41.143Z,3.22
2023-02-15T08:59:08.682Z,3.67
2023-02-15T09:01:36.050Z,3.42
2023-02-15T09:04:05.295Z,3.30
2023-02-15T09:06:32.334Z,3.50
2023-02-15T09:08:59.210Z,2.80
2023-02-15T09:11:29.942Z,3.20
2023-02-15T09:14:05.209Z,2.97
2023-02-15T09:16:33.560Z,2.47
2023-02-15T09:19:02.326Z,2.55
2023-02-15T09:21:29.491Z,2.58
2023-02-15T09:24:02.019Z,2.80
2023-02-15T09:26:30.236Z,2.75
2023-02-15T09:28:58.728Z,2.80
2023-02-15T09:31:27.482Z,3.13
2023-02-15T09:33:54.361Z,2.90
2023-02-15T09:36:29.708Z,2.65
2023-02-15T09:39:14.599Z,3.03
2023-02-15T09:41:56.416Z,2.80
2023-02-15T09:44:53.997Z,2.00
2023-02-15T09:47:31.878Z,2.80
2023-02-15T09:50:21.538Z,2.33
2023-02-15T09:52:56.994Z,2.20
2023-02-15T09:55:57.466Z,2.42
2023-02-15T09:58:39.250Z,1.88
2023-02-15T10:01:20.653Z,1.45
2023-02-15T10:04:06.060Z,1.30
2023-02-15T10:06:34.652Z,2.05
2023-02-15T10:09:26.185Z,1.95
2023-02-15T10:11:55.773Z,1.98
2023-02-15T10:14:54.190Z,2.28
2023-02-15T10:17:29.925Z,1.80
2023-02-15T10:20:29.725Z,2.33
2023-02-15T10:23:08.378Z,1.92
2023-02-15T10:25:41.120Z,1.73
2023-02-15T10:28:19.314Z,2.03
2023-02-15T10:30:54.596Z,1.50
2023-02-15T10:33:38.672Z,1.80
2023-02-15T10:36:47.877Z,1.65
2023-02-15T10:39:51.486Z,1.20
2023-02-15T10:42:39.592Z,1.20
2023-02-15T10:45:21.876Z,1.00
2023-02-15T10:48:04.881Z,1.30
2023-02-15T10:50:53.010Z,1.33
2023-02-15T10:53:29.494Z,1.40
2023-02-15T10:56:02.500Z,1.20
2023-02-15T10:58:58.317Z,1.30
2023-02-15T11:01:50.540Z,1.40
2023-02-15T11:04:17.546Z,1.30
2023-02-15T11:06:49.355Z,1.45
2023-02-15T11:09:19.022Z,1.25
2023-02-15T11:11:47.641Z,0.90
2023-02-15T11:14:22.141Z,1.05
2023-02-15T11:16:51.761Z,1.52
2023-02-15T11:19:31.697Z,1.40
2023-02-15T11:22:04.057Z,1.58
2023-02-15T11:24:32.122Z,1.55
2023-02-15T11:27:06.915Z,1.50
2023-02-15T11:29:35.072Z,1.42
2023-02-15T11:32:18.970Z,1.60
2023-02-15T11:35:02.367Z,1.52
2023-02-15T11:37:49.837Z,1.52
2023-02-15T11:40:31.297Z,1.60
2023-02-15T11:43:02.988Z,1.55
2023-02-15T11:45:31.044Z,1.50
2023-02-15T11:47:58.449Z,1.15
2023-02-15T11:50:27.202Z,1.30
2023-02-15T11:52:57.660Z,1.50
2023-02-15T11:55:25.064Z,1.63
2023-02-15T11:58:04.171Z,1.33
2023-02-15T12:00:37.243Z,1.65
2023-02-15T12:03:42.825Z,1.20
2023-02-15T12:06:25.092Z,1.20
2023-02-15T12:09:00.283Z,1.10
2023-02-15T12:11:39.069Z,1.20
2023-02-15T12:14:12.960Z,1.08
2023-02-15T12:16:52.000Z,1.10
2023-02-15T12:19:21.954Z,0.97
2023-02-15T12:21:50.888Z,0.90
2023-02-15T12:24:31.287Z,1.07
2023-02-15T12:27:06.426Z,1.10
2023-02-15T12:29:40.836Z,1.02
2023-02-15T12:32:09.965Z,0.80
2023-02-15T12:34:42.243Z,0.70
2023-02-15T12:37:23.895Z,0.90
2023-02-15T12:39:57.283Z,0.80
2023-02-15T12:42:24.914Z,1.00
2023-02-15T12:45:05.343Z,1.20
2023-02-15T12:47:32.399Z,0.85
2023-02-15T12:50:17.986Z,0.90
2023-02-15T12:52:49.293Z,0.70
2023-02-15T12:55:28.289Z,0.70
2023-02-15T12:58:08.264Z,0.80
2023-02-15T13:00:35.811Z,0.67
2023-02-15T13:03:03.806Z,0.60
2023-02-15T13:05:33.570Z,0.70
2023-02-15T13:08:24.914Z,0.73
2023-02-15T13:10:57.038Z,0.50
2023-02-15T13:13:26.557Z,0.60
2023-02-15T13:15:55.386Z,0.50
2023-02-15T13:18:32.408Z,0.57
2023-02-15T13:21:21.115Z,0.70
2023-02-15T13:23:49.834Z,0.70
2023-02-15T13:26:19.498Z,0.60
2023-02-15T13:28:48.148Z,0.60
2023-02-15T13:31:22.501Z,0.80
2023-02-15T13:33:57.441Z,0.73
2023-02-15T13:36:30.072Z,0.50
2023-02-15T13:39:26.557Z,0.50
2023-02-15T13:42:01.456Z,0.70
2023-02-15T13:44:57.905Z,0.60
2023-02-15T13:47:43.031Z,0.50
2023-02-15T13:50:30.012Z,0.70
2023-02-15T13:53:17.259Z,0.50
2023-02-15T13:56:03.020Z,0.60
2023-02-15T13:58:38.456Z,0.57
2023-02-15T14:01:05.516Z,0.60
2023-02-15T14:03:57.202Z,0.47
2023-02-15T14:06:58.478Z,0.50
2023-02-15T14:09:48.570Z,0.63
2023-02-15T14:12:25.388Z,0.60
2023-02-15T14:15:29.459Z,0.50
2023-02-15T14:18:14.575Z,0.77
2023-02-15T14:20:59.423Z,0.70
2023-02-15T14:23:50.137Z,0.70
2023-02-15T14:26:27.024Z,0.60
2023-02-15T14:29:08.930Z,0.60
2023-02-15T14:31:38.744Z,0.53
2023-02-15T14:34:16.695Z,0.80
2023-02-15T14:36:43.742Z,0.53
2023-02-15T14:39:50.749Z,0.60
2023-02-15T14:42:33.629Z,0.80
2023-02-15T14:45:06.124Z,0.60
2023-02-15T14:47:36.433Z,0.80
2023-02-15T14:50:38.402Z,1.03
2023-02-15T14:53:16.712Z,0.70
2023-02-15T14:55:43.501Z,0.90
2023-02-15T14:58:13.599Z,0.70
2023-02-15T15:00:43.639Z,0.70
2023-02-15T15:03:24.674Z,0.60
2023-02-15T15:05:54.298Z,0.80
2023-02-15T15:08:35.106Z,0.80
2023-02-15T15:11:42.146Z,0.73
2023-02-15T15:14:09.592Z,0.60
2023-02-15T15:16:36.699Z,1.33
2023-02-15T15:19:04.978Z,0.80
2023-02-15T15:21:50.071Z,1.03
2023-02-15T15:24:38.758Z,1.30
2023-02-15T15:27:44.753Z,1.70
2023-02-15T15:30:14.619Z,1.60
2023-02-15T15:32:42.499Z,1.80
2023-02-15T15:35:27.465Z,1.70
2023-02-15T15:38:12.985Z,1.63
2023-02-15T15:40:43.041Z,1.40
2023-02-15T15:43:31.385Z,1.43
2023-02-15T15:46:12.942Z,1.90
2023-02-15T15:48:40.944Z,1.80
2023-02-15T15:51:43.439Z,1.40
2023-02-15T15:54:17.952Z,1.60
2023-02-15T15:56:47.882Z,1.80
2023-02-15T15:59:24.062Z,1.23
2023-02-15T16:01:51.079Z,2.50
2023-02-15T16:04:31.301Z,2.20
2023-02-15T16:06:58.985Z,1.67
2023-02-15T16:09:27.154Z,2.13
2023-02-15T16:12:02.639Z,2.10
2023-02-15T16:14:35.832Z,2.10
2023-02-15T16:17:04.462Z,1.70
2023-02-15T16:19:34.491Z,1.60
2023-02-15T16:22:01.567Z,1.60
2023-02-15T16:24:43.110Z,1.70
2023-02-15T16:27:40.590Z,1.97
2023-02-15T16:30:24.909Z,2.00
2023-02-15T16:33:16.232Z,1.40
2023-02-15T16:35:59.186Z,1.00
2023-02-15T16:38:43.950Z,1.07
2023-02-15T16:41:26.350Z,0.97
2023-02-15T16:43:53.946Z,0.93
2023-02-15T16:46:36.627Z,1.30
2023-02-15T16:49:15.909Z,1.37
2023-02-15T16:51:43.291Z,1.00
2023-02-15T16:54:16.513Z,1.10
2023-02-15T16:56:45.497Z,0.90
2023-02-15T16:59:36.137Z,1.10
2023-02-15T17:02:05.784Z,1.07
2023-02-15T17:04:33.153Z,1.20
2023-02-15T17:06:59.847Z,1.20
2023-02-15T17:09:26.761Z,2.50
2023-02-15T17:11:54.418Z,3.03
2023-02-15T17:14:31.702Z,3.33
2023-02-15T17:17:08.934Z,3.20
2023-02-15T17:19:48.681Z,3.03
2023-02-15T17:22:23.195Z,2.43
2023-02-15T17:24:50.355Z,2.30
2023-02-15T17:27:22.175Z,1.80
2023-02-15T17:29:52.941Z,1.77
2023-02-15T17:32:22.269Z,1.37
2023-02-15T17:35:04.288Z,1.40
2023-02-15T17:37:30.990Z,1.30
2023-02-15T17:39:58.623Z,1.70
2023-02-15T17:42:25.442Z,1.60
2023-02-15T17:44:52.208Z,1.50
2023-02-15T17:47:23.291Z,1.42
2023-02-15T17:49:52.633Z,1.45
2023-02-15T17:52:19.390Z,1.75
2023-02-15T17:55:04.734Z,1.60
2023-02-15T17:57:33.241Z,1.75
2023-02-15T18:00:18.865Z,2.05
2023-02-15T18:03:04.253Z,1.55
2023-02-15T18:05:49.400Z,1.55
2023-02-15T18:08:35.636Z,1.90
2023-02-15T18:11:20.806Z,1.98
2023-02-15T18:13:47.558Z,2.10
2023-02-15T18:16:25.161Z,1.80
2023-02-15T18:18:52.089Z,1.75
2023-02-15T18:21:19.313Z,1.52
2023-02-15T18:23:46.065Z,1.88
2023-02-15T18:26:23.405Z,1.67
2023-02-15T18:28:50.427Z,1.80
2023-02-15T18:31:17.325Z,1.65
2023-02-15T18:34:03.214Z,1.90
2023-02-15T18:36:32.761Z,1.75
2023-02-15T18:39:01.406Z,2.10
2023-02-15T18:41:30.611Z,2.22
2023-02-15T18:43:57.362Z,1.80
2023-02-15T18:46:24.120Z,1.70
2023-02-15T18:48:50.881Z,2.08
2023-02-15T18:51:19.389Z,2.25
2023-02-15T18:53:47.266Z,1.90
2023-02-15T18:56:16.184Z,1.80
2023-02-15T18:58:43.073Z,1.90
2023-02-15T19:01:17.601Z,1.88
2023-02-15T19:03:48.826Z,1.83
2023-02-15T19:06:17.704Z,2.10
2023-02-15T19:08:45.519Z,2.03
2023-02-15T19:11:15.659Z,2.40
2023-02-15T19:13:42.446Z,2.58
2023-02-15T19:16:30.711Z,2.13
2023-02-15T19:18:57.610Z,2.55
2023-02-15T19:21:24.480Z,2.55
2023-02-15T19:23:59.879Z,2.63
2023-02-15T19:26:36.298Z,2.30
2023-02-15T19:29:12.697Z,2.90
2023-02-15T19:31:39.577Z,2.28
2023-02-15T19:34:15.488Z,2.50
2023-02-15T19:36:43.984Z,2.35
2023-02-15T19:39:35.407Z,2.08
2023-02-15T19:42:02.181Z,2.55
2023-02-15T19:44:29.027Z,2.85
2023-02-15T19:46:55.795Z,2.72
2023-02-15T19:49:22.537Z,2.42
2023-02-15T19:51:49.348Z,2.50
2023-02-15T19:54:27.199Z,2.50
2023-02-15T19:56:54.254Z,2.58
2023-02-15T19:59:32.349Z,2.50
2023-02-15T20:01:59.130Z,2.85
2023-02-15T20:04:26.151Z,3.00
2023-02-15T20:06:54.319Z,2.63
2023-02-15T20:09:31.743Z,2.75
2023-02-15T20:11:58.605Z,2.67
2023-02-15T20:14:25.358Z,2.75
2023-02-15T20:16:52.172Z,3.35
2023-02-15T20:19:18.955Z,2.50
2023-02-15T20:21:46.346Z,3.33
2023-02-15T20:24:17.758Z,2.42
2023-02-15T20:26:44.545Z,2.60
2023-02-15T20:29:18.545Z,2.58
2023-02-15T20:31:45.627Z,3.20
2023-02-15T20:34:12.497Z,3.10
2023-02-15T20:36:39.253Z,2.60
2023-02-15T20:39:13.416Z,3.80
2023-02-15T20:41:45.962Z,2.75
2023-02-15T20:44:15.536Z,3.00
2023-02-15T20:46:42.336Z,2.72
2023-02-15T20:49:09.139Z,3.25
2023-02-15T20:51:36.030Z,3.58
2023-02-15T20:54:08.424Z,3.17
2023-02-15T20:56:35.273Z,3.70
2023-02-15T20:59:02.067Z,3.05
2023-02-15T21:01:28.804Z,3.50
2023-02-15T21:03:55.618Z,3.40
2023-02-15T21:06:22.543Z,3.58
2023-02-15T21:08:49.281Z,3.92
2023-02-15T21:11:20.776Z,2.88
2023-02-15T21:13:48.060Z,3.05
2023-02-15T21:16:15.342Z,3.15
2023-02-15T21:18:42.559Z,3.38
2023-02-15T21:21:18.789Z,3.33
2023-02-15T21:23:45.557Z,2.50
2023-02-15T21:26:22.405Z,3.42
2023-02-15T21:28:50.144Z,3.25
2023-02-15T21:31:18.808Z,3.42
2023-02-15T21:33:45.634Z,3.40
2023-02-15T21:36:16.808Z,2.95
2023-02-15T21:38:44.891Z,3.08
2023-02-15T21:41:40.524Z,3.60
2023-02-15T21:44:36.958Z,3.50
2023-02-15T21:47:22.348Z,3.20
2023-02-15T21:49:49.138Z,3.00
2023-02-15T21:52:18.070Z,3.00
2023-02-15T21:54:44.869Z,3.45
2023-02-15T21:57:15.283Z,3.30
2023-02-15T21:59:42.494Z,3.40
2023-02-15T22:02:26.619Z,3.15
2023-02-15T22:04:53.421Z,2.55
2023-02-15T22:07:20.174Z,3.08
2023-02-15T22:09:47.027Z,3.20
2023-02-15T22:12:17.572Z,3.50
2023-02-15T22:14:45.937Z,3.50
2023-02-15T22:17:16.292Z,3.75
2023-02-15T22:19:44.102Z,3.90
2023-02-15T22:22:11.168Z,3.20
2023-02-15T22:24:37.987Z,3.38
2023-02-15T22:27:05.065Z,3.60
2023-02-15T22:29:31.896Z,2.90
2023-02-15T22:31:58.770Z,3.10
2023-02-15T22:34:27.422Z,2.78
2023-02-15T22:36:54.577Z,3.58
2023-02-15T22:39:22.616Z,2.95
2023-02-15T22:41:49.412Z,3.00
2023-02-15T22:44:24.120Z,3.17
2023-02-15T22:46:51.383Z,2.92
2023-02-15T22:49:18.215Z,3.40
2023-02-15T22:51:48.935Z,2.42
2023-02-15T22:54:16.379Z,3.58
2023-02-15T22:56:50.499Z,2.88
2023-02-15T22:59:20.201Z,3.03
2023-02-15T23:01:47.101Z,3.28
2023-02-15T23:04:18.478Z,3.50
2023-02-15T23:06:45.623Z,3.35
2023-02-15T23:09:12.417Z,2.78
2023-02-15T23:11:39.350Z,3.20
2023-02-15T23:14:06.098Z,3.65
2023-02-15T23:16:34.556Z,3.00
2023-02-15T23:19:01.392Z,3.00
2023-02-15T23:21:28.843Z,3.20
2023-02-15T23:23:57.728Z,2.85
2023-02-15T23:26:27.673Z,2.67
2023-02-15T23:28:55.024Z,3.20
2023-02-15T23:31:29.676Z,3.53
2023-02-15T23:33:56.504Z,3.33
2023-02-15T23:36:36.867Z,3.33
2023-02-15T23:39:39.860Z,2.70
2023-02-15T23:42:17.428Z,3.28
2023-02-15T23:44:44.656Z,2.97
2023-02-15T23:47:50.217Z,2.78
2023-02-15T23:50:23.468Z,3.33
2023-02-15T23:52:50.696Z,3.00
2023-02-15T23:55:17.633Z,2.78
2023-02-15T23:57:44.516Z,2.95
